createdAt,value
2019-04-04T00:01:33.254Z,3.30
2019-04-04T00:03:59.982Z,3.40
2019-04-04T00:06:26.987Z,3.50
2019-04-04T00:08:53.520Z,3.50
2019-04-04T00:11:21.006Z,3.60
2019-04-04T00:13:48.438Z,3.60
2019-04-04T00:16:16.573Z,3.70
2019-04-04T00:18:46.370Z,3.70
2019-04-04T00:21:14.550Z,3.70
2019-04-04T00:23:42.927Z,3.80
2019-04-04T00:26:10.776Z,3.80
2019-04-04T00:28:36.799Z,3.80
2019-04-04T00:31:03.550Z,3.90
2019-04-04T00:33:30.247Z,3.80
2019-04-04T00:35:57.723Z,3.80
2019-04-04T00:38:25.216Z,3.80
2019-04-04T00:40:51.879Z,3.80
2019-04-04T00:43:20.855Z,3.80
2019-04-04T00:45:45.566Z,3.80
2019-04-04T00:48:12.319Z,3.80
2019-04-04T00:50:39.814Z,3.70
2019-04-04T00:53:06.646Z,3.70
2019-04-04T00:55:33.363Z,3.70
2019-04-04T00:58:00.092Z,3.60
2019-04-04T01:00:26.822Z,3.60
2019-04-04T01:02:53.501Z,3.50
2019-04-04T01:05:21.000Z,3.40
2019-04-04T01:07:47.698Z,3.40
2019-04-04T01:10:15.184Z,3.40
2019-04-04T01:12:41.945Z,3.30
2019-04-04T01:15:08.669Z,3.20
2019-04-04T01:17:35.877Z,3.30
2019-04-04T01:20:04.828Z,3.00
2019-04-04T01:22:31.770Z,3.00
2019-04-04T01:24:59.071Z,2.90
2019-04-04T01:27:25.313Z,2.80
2019-04-04T01:29:52.799Z,2.70
2019-04-04T01:32:19.504Z,2.60
2019-04-04T01:34:47.009Z,2.50
2019-04-04T01:37:13.738Z,2.50
2019-04-04T01:39:40.393Z,2.50
2019-04-04T01:42:07.835Z,2.40
2019-04-04T01:44:33.933Z,2.30
2019-04-04T01:47:00.673Z,2.20
2019-04-04T01:49:28.286Z,2.10
2019-04-04T01:51:56.886Z,2.10
2019-04-04T01:54:21.945Z,2.00
2019-04-04T01:56:48.687Z,2.00
2019-04-04T01:59:15.411Z,2.00
2019-04-04T02:01:42.124Z,1.90
2019-04-04T02:04:09.606Z,1.80
2019-04-04T02:06:36.299Z,1.70
2019-04-04T02:09:03.596Z,1.70
2019-04-04T02:11:29.949Z,1.60
2019-04-04T02:13:56.715Z,1.50
2019-04-04T02:16:23.491Z,1.60
2019-04-04T02:18:54.430Z,1.40
2019-04-04T02:21:21.895Z,1.50
2019-04-04T02:23:48.635Z,1.50
2019-04-04T02:26:15.350Z,1.50
2019-04-04T02:28:42.028Z,1.60
2019-04-04T02:31:08.817Z,1.70
2019-04-04T02:33:35.554Z,1.60
2019-04-04T02:36:02.282Z,1.60
2019-04-04T02:38:29.016Z,1.60
2019-04-04T02:40:56.481Z,1.40
2019-04-04T02:43:27.227Z,1.40
2019-04-04T02:45:50.077Z,1.50
2019-04-04T02:48:16.931Z,1.40
2019-04-04T02:50:44.478Z,1.40
2019-04-04T02:53:11.208Z,1.40
2019-04-04T02:55:37.903Z,1.40
2019-04-04T02:58:05.386Z,1.50
2019-04-04T03:00:32.071Z,1.50
2019-04-04T03:02:58.818Z,1.60
2019-04-04T03:05:26.404Z,1.40
2019-04-04T03:07:53.865Z,1.30
2019-04-04T03:10:21.329Z,1.30
2019-04-04T03:12:48.098Z,1.30
2019-04-04T03:15:14.900Z,1.30
2019-04-04T03:17:42.410Z,1.50
2019-04-04T03:20:09.277Z,1.40
2019-04-04T03:22:35.967Z,1.50
2019-04-04T03:25:02.808Z,1.70
2019-04-04T03:27:29.566Z,1.70
2019-04-04T03:29:56.265Z,1.70
2019-04-04T03:32:23.742Z,1.70
2019-04-04T03:34:51.583Z,1.70
2019-04-04T03:37:17.277Z,1.60
2019-04-04T03:39:44.013Z,1.80
2019-04-04T03:42:10.726Z,1.80
2019-04-04T03:44:37.464Z,1.80
2019-04-04T03:47:04.214Z,1.80
2019-04-04T03:49:30.997Z,1.80
2019-04-04T03:51:58.710Z,1.70
2019-04-04T03:54:25.531Z,1.60
2019-04-04T03:56:52.449Z,1.60
2019-04-04T03:59:20.170Z,1.70
2019-04-04T04:01:47.151Z,1.60
2019-04-04T04:04:14.674Z,1.80
2019-04-04T04:06:42.348Z,1.70
2019-04-04T04:09:08.132Z,1.70
2019-04-04T04:11:37.562Z,1.70
2019-04-04T04:14:01.984Z,1.70
2019-04-04T04:16:29.503Z,1.80
2019-04-04T04:18:56.301Z,1.80
2019-04-04T04:21:25.784Z,1.80
2019-04-04T04:23:56.354Z,1.70
2019-04-04T04:26:20.559Z,1.70
2019-04-04T04:28:52.174Z,1.70
2019-04-04T04:31:15.712Z,1.70
2019-04-04T04:33:41.880Z,1.60
2019-04-04T04:36:10.120Z,1.60
2019-04-04T04:38:36.039Z,1.60
2019-04-04T04:41:03.295Z,1.70
2019-04-04T04:43:33.565Z,1.80
2019-04-04T04:45:58.306Z,2.00
2019-04-04T04:48:28.501Z,2.10
2019-04-04T04:50:54.755Z,2.10
2019-04-04T04:53:21.831Z,2.20
2019-04-04T04:55:48.844Z,2.30
2019-04-04T04:58:15.926Z,2.40
2019-04-04T05:00:42.629Z,2.50
2019-04-04T05:03:09.363Z,2.80
2019-04-04T05:05:36.143Z,2.80
2019-04-04T05:08:03.655Z,3.20
2019-04-04T05:10:30.406Z,3.10
2019-04-04T05:12:57.145Z,3.30
2019-04-04T05:15:24.653Z,3.40
2019-04-04T05:17:51.353Z,3.40
2019-04-04T05:20:18.038Z,3.50
2019-04-04T05:22:44.749Z,3.70
2019-04-04T05:25:12.261Z,4.00
2019-04-04T05:27:39.050Z,4.00
2019-04-04T05:30:08.341Z,4.00
2019-04-04T05:32:33.008Z,4.20
2019-04-04T05:35:01.168Z,4.50
2019-04-04T05:37:28.536Z,4.60
2019-04-04T05:39:56.134Z,4.70
2019-04-04T05:42:23.571Z,4.80
2019-04-04T05:44:50.488Z,4.70
2019-04-04T05:47:17.196Z,5.10
2019-04-04T05:49:43.978Z,5.40
2019-04-04T05:52:10.845Z,5.50
2019-04-04T05:54:39.201Z,5.70
2019-04-04T05:57:04.337Z,5.70
2019-04-04T05:59:31.134Z,5.90
2019-04-04T06:01:57.840Z,6.20
2019-04-04T06:04:24.543Z,6.60
2019-04-04T06:06:51.338Z,7.00
2019-04-04T06:09:18.026Z,8.20
2019-04-04T06:11:44.736Z,9.50
2019-04-04T06:14:11.476Z,10.40
2019-04-04T06:16:38.176Z,10.80
2019-04-04T06:19:07.931Z,12.20
2019-04-04T06:21:34.668Z,12.10
2019-04-04T06:24:01.400Z,11.90
2019-04-04T06:26:28.132Z,11.10
2019-04-04T06:28:54.851Z,11.00
2019-04-04T06:31:22.344Z,10.20
2019-04-04T06:33:49.846Z,10.20
2019-04-04T06:36:18.338Z,9.40
2019-04-04T06:38:45.237Z,9.30
2019-04-04T06:41:11.933Z,9.40
2019-04-04T06:43:41.450Z,10.00
2019-04-04T06:46:06.218Z,10.00
2019-04-04T06:48:33.959Z,10.10
2019-04-04T06:51:01.199Z,10.60
2019-04-04T06:53:29.134Z,10.60
2019-04-04T06:55:55.897Z,10.90
2019-04-04T06:58:22.631Z,10.40
2019-04-04T07:00:50.292Z,10.60
2019-04-04T07:03:17.523Z,11.20
2019-04-04T07:05:44.301Z,11.20
2019-04-04T07:08:11.220Z,11.70
2019-04-04T07:10:38.050Z,12.30
2019-04-04T07:13:20.491Z,13.10
2019-04-04T07:15:32.956Z,12.70
2019-04-04T07:17:59.690Z,12.70
2019-04-04T07:20:28.420Z,12.20
2019-04-04T07:22:55.598Z,12.20
2019-04-04T07:25:19.976Z,13.20
2019-04-04T07:27:47.504Z,14.40
2019-04-04T07:30:15.386Z,15.50
2019-04-04T07:32:41.580Z,15.50
2019-04-04T07:35:07.946Z,16.40
2019-04-04T07:37:34.642Z,16.30
2019-04-04T07:40:03.209Z,16.70
2019-04-04T07:42:28.266Z,16.70
2019-04-04T07:44:55.171Z,17.70
2019-04-04T07:47:22.597Z,17.80
2019-04-04T07:49:49.492Z,16.80
2019-04-04T07:52:17.384Z,16.00
2019-04-04T07:54:43.688Z,17.40
2019-04-04T07:57:10.479Z,17.80
2019-04-04T07:59:37.914Z,17.90
2019-04-04T08:02:05.422Z,17.60
2019-04-04T08:04:32.913Z,17.30
2019-04-04T08:06:59.629Z,17.30
2019-04-04T08:09:26.457Z,16.80
2019-04-04T08:11:53.236Z,16.70
2019-04-04T08:14:19.882Z,17.00
2019-04-04T08:16:46.590Z,16.50
2019-04-04T08:19:15.327Z,15.20
2019-04-04T08:21:42.023Z,15.10
2019-04-04T08:24:08.780Z,14.60
2019-04-04T08:26:36.198Z,14.20
2019-04-04T08:29:04.338Z,13.60
2019-04-04T08:31:31.216Z,13.60
2019-04-04T08:33:58.140Z,13.20
2019-04-04T08:36:25.631Z,12.80
2019-04-04T08:38:52.828Z,12.70
2019-04-04T08:41:19.552Z,13.10
2019-04-04T08:43:46.272Z,13.50
2019-04-04T08:46:13.070Z,14.30
2019-04-04T08:48:40.032Z,15.00
2019-04-04T08:51:07.522Z,15.60
2019-04-04T08:53:40.337Z,15.60
2019-04-04T08:56:01.448Z,15.60
2019-04-04T08:58:28.320Z,15.50
2019-04-04T09:00:55.122Z,15.50
2019-04-04T09:03:22.075Z,15.40
2019-04-04T09:05:49.232Z,15.90
2019-04-04T09:08:16.557Z,14.80
2019-04-04T09:10:43.287Z,15.80
2019-04-04T09:13:09.986Z,14.80
2019-04-04T09:15:37.483Z,15.30
2019-04-04T09:18:04.782Z,15.20
2019-04-04T09:20:31.534Z,16.00
2019-04-04T09:22:59.227Z,15.40
2019-04-04T09:25:25.983Z,15.30
2019-04-04T09:27:52.749Z,15.30
2019-04-04T09:30:20.038Z,14.70
2019-04-04T09:32:46.932Z,15.10
2019-04-04T09:35:14.110Z,14.90
2019-04-04T09:37:41.084Z,14.30
2019-04-04T09:40:08.546Z,13.50
2019-04-04T09:42:36.869Z,13.20
2019-04-04T09:45:04.825Z,13.20
2019-04-04T09:47:31.519Z,12.90
2019-04-04T09:49:58.283Z,13.00
2019-04-04T09:52:25.081Z,13.10
2019-04-04T09:54:51.792Z,13.60
2019-04-04T09:57:18.657Z,13.50
2019-04-04T09:59:45.851Z,13.60
2019-04-04T10:02:13.062Z,13.60
2019-04-04T10:04:39.794Z,13.30
2019-04-04T10:07:06.550Z,13.70
2019-04-04T10:09:33.250Z,14.00
2019-04-04T10:11:59.931Z,14.10
2019-04-04T10:14:27.399Z,13.90
2019-04-04T10:16:54.906Z,13.50
2019-04-04T10:19:22.979Z,13.50
2019-04-04T10:21:49.739Z,14.10
2019-04-04T10:24:16.419Z,14.30
2019-04-04T10:26:43.956Z,14.10
2019-04-04T10:29:10.620Z,14.10
2019-04-04T10:31:37.322Z,13.70
2019-04-04T10:34:04.119Z,13.80
2019-04-04T10:36:30.801Z,14.20
2019-04-04T10:38:57.542Z,14.10
2019-04-04T10:41:24.297Z,13.60
2019-04-04T10:43:51.025Z,13.60
2019-04-04T10:46:17.776Z,14.10
2019-04-04T10:48:44.485Z,14.00
2019-04-04T10:51:11.763Z,14.00
2019-04-04T10:53:38.492Z,14.00
2019-04-04T10:56:06.088Z,13.70
2019-04-04T10:58:32.974Z,13.70
2019-04-04T11:00:59.708Z,13.40
2019-04-04T11:03:27.996Z,13.50
2019-04-04T11:05:55.555Z,13.30
2019-04-04T11:08:22.283Z,13.30
2019-04-04T11:10:50.322Z,12.60
2019-04-04T11:13:16.552Z,12.60
2019-04-04T11:15:44.881Z,12.30
2019-04-04T11:18:12.026Z,12.20
2019-04-04T11:20:38.994Z,12.40
2019-04-04T11:23:06.351Z,12.50
2019-04-04T11:25:33.388Z,12.90
2019-04-04T11:28:00.142Z,12.60
2019-04-04T11:30:26.790Z,12.10
2019-04-04T11:32:53.480Z,12.50
2019-04-04T11:35:20.591Z,12.90
2019-04-04T11:37:47.315Z,12.80
2019-04-04T11:40:14.066Z,12.60
2019-04-04T11:42:41.722Z,12.80
2019-04-04T11:45:08.621Z,12.10
2019-04-04T11:47:35.361Z,11.70
2019-04-04T11:50:02.171Z,11.70
2019-04-04T11:52:29.573Z,11.70
2019-04-04T11:54:57.215Z,11.60
2019-04-04T11:57:24.458Z,11.70
2019-04-04T11:59:51.207Z,11.70
2019-04-04T12:02:17.904Z,11.50
2019-04-04T12:04:44.618Z,11.40
2019-04-04T12:07:12.951Z,11.60
2019-04-04T12:09:39.742Z,11.60
2019-04-04T12:12:06.439Z,11.70
2019-04-04T12:14:33.127Z,12.10
2019-04-04T12:16:59.829Z,12.10
2019-04-04T12:19:29.585Z,12.20
2019-04-04T12:21:56.407Z,11.90
2019-04-04T12:24:23.101Z,11.90
2019-04-04T12:26:50.525Z,11.80
2019-04-04T12:29:17.964Z,11.90
2019-04-04T12:31:44.773Z,11.90
2019-04-04T12:34:11.480Z,12.00
2019-04-04T12:36:38.959Z,12.30
2019-04-04T12:39:06.494Z,12.40
2019-04-04T12:41:33.234Z,12.30
2019-04-04T12:43:59.964Z,12.30
2019-04-04T12:46:26.633Z,12.30
2019-04-04T12:48:53.338Z,12.30
2019-04-04T12:51:20.042Z,12.10
2019-04-04T12:53:46.735Z,12.00
2019-04-04T12:56:13.539Z,12.30
2019-04-04T12:58:40.265Z,12.30
2019-04-04T13:01:07.026Z,12.40
2019-04-04T13:03:33.786Z,12.40
2019-04-04T13:06:00.503Z,12.20
2019-04-04T13:08:30.466Z,12.10
2019-04-04T13:10:54.757Z,12.10
2019-04-04T13:13:22.195Z,11.70
2019-04-04T13:15:48.914Z,11.70
2019-04-04T13:18:15.617Z,11.70
2019-04-04T13:20:42.324Z,11.80
2019-04-04T13:23:09.102Z,11.90
2019-04-04T13:25:35.857Z,12.00
2019-04-04T13:28:02.617Z,11.80
2019-04-04T13:30:29.334Z,11.90
2019-04-04T13:32:56.059Z,11.90
2019-04-04T13:35:23.751Z,11.70
2019-04-04T13:37:51.263Z,11.60
2019-04-04T13:40:18.716Z,11.60
2019-04-04T13:42:45.574Z,11.50
2019-04-04T13:45:12.368Z,11.50
2019-04-04T13:47:40.310Z,11.30
2019-04-04T13:50:06.092Z,11.00
2019-04-04T13:52:33.839Z,11.30
2019-04-04T13:55:01.458Z,11.10
2019-04-04T13:57:29.438Z,11.10
2019-04-04T13:59:57.850Z,11.10
2019-04-04T14:02:25.829Z,11.30
2019-04-04T14:04:55.275Z,11.30
2019-04-04T14:07:21.207Z,11.40
2019-04-04T14:09:48.643Z,11.60
2019-04-04T14:12:17.119Z,11.40
2019-04-04T14:14:44.362Z,11.40
2019-04-04T14:17:11.539Z,11.60
2019-04-04T14:19:39.215Z,11.50
2019-04-04T14:22:06.420Z,11.30
2019-04-04T14:24:34.433Z,11.10
2019-04-04T14:27:01.257Z,11.10
2019-04-04T14:29:28.177Z,11.10
2019-04-04T14:31:54.763Z,11.20
2019-04-04T14:34:21.487Z,11.10
2019-04-04T14:36:48.211Z,10.70
2019-04-04T14:39:14.920Z,10.50
2019-04-04T14:41:42.358Z,10.10
2019-04-04T14:44:09.125Z,10.00
2019-04-04T14:46:37.110Z,9.90
2019-04-04T14:49:02.725Z,9.90
2019-04-04T14:51:29.457Z,9.80
2019-04-04T14:53:57.989Z,10.00
2019-04-04T14:56:23.047Z,10.10
2019-04-04T14:58:49.754Z,10.00
2019-04-04T15:01:16.497Z,9.90
2019-04-04T15:03:43.262Z,9.80
2019-04-04T15:06:10.682Z,9.80
2019-04-04T15:08:37.433Z,9.70
2019-04-04T15:11:04.195Z,9.70
2019-04-04T15:13:31.634Z,9.60
2019-04-04T15:16:09.592Z,9.50
2019-04-04T15:18:35.003Z,9.50
2019-04-04T15:21:01.710Z,9.60
2019-04-04T15:23:29.185Z,9.50
2019-04-04T15:25:55.913Z,9.40
2019-04-04T15:28:26.031Z,9.40
2019-04-04T15:30:50.200Z,9.40
2019-04-04T15:33:17.609Z,9.50
2019-04-04T15:35:44.333Z,9.50
2019-04-04T15:38:11.106Z,9.60
2019-04-04T15:40:37.786Z,9.40
2019-04-04T15:43:04.497Z,9.50
2019-04-04T15:45:32.066Z,9.30
2019-04-04T15:47:58.819Z,9.30
2019-04-04T15:50:26.248Z,9.30
2019-04-04T15:52:53.791Z,9.40
2019-04-04T15:55:20.473Z,9.40
2019-04-04T15:57:47.926Z,9.40
2019-04-04T16:00:15.517Z,9.40
2019-04-04T16:02:42.229Z,9.40
2019-04-04T16:05:09.544Z,9.40
2019-04-04T16:07:36.373Z,9.40
2019-04-04T16:10:03.146Z,9.40
2019-04-04T16:12:30.086Z,9.50
2019-04-04T16:14:57.010Z,9.50
2019-04-04T16:17:23.770Z,9.40
2019-04-04T16:19:50.543Z,9.30
2019-04-04T16:22:18.687Z,9.30
2019-04-04T16:24:45.689Z,9.30
2019-04-04T16:27:12.737Z,9.30
2019-04-04T16:29:39.692Z,9.40
2019-04-04T16:32:06.498Z,9.40
2019-04-04T16:34:33.232Z,9.30
2019-04-04T16:37:00.128Z,9.40
2019-04-04T16:39:26.869Z,9.20
2019-04-04T16:45:07.435Z,9.10
2019-04-04T16:47:31.937Z,9.10
2019-04-04T16:49:58.781Z,8.90
2019-04-04T16:52:25.519Z,8.80
2019-04-04T16:54:53.670Z,8.70
2019-04-04T16:57:19.204Z,8.70
2019-04-04T16:59:46.970Z,8.50
2019-04-04T17:02:14.531Z,8.30
2019-04-04T17:04:41.474Z,8.30
2019-04-04T17:07:08.318Z,8.30
2019-04-04T17:09:35.263Z,8.20
2019-04-04T17:12:14.113Z,8.10
2019-04-04T17:14:29.049Z,8.00
2019-04-04T17:16:55.739Z,7.90
2019-04-04T17:19:23.249Z,7.60
2019-04-04T17:21:49.989Z,7.60
2019-04-04T17:24:16.933Z,7.50
2019-04-04T17:26:43.705Z,7.30
2019-04-04T17:29:10.724Z,7.10
2019-04-04T17:31:37.829Z,7.00
2019-04-04T17:34:05.452Z,6.90
2019-04-04T17:36:31.968Z,6.80
2019-04-04T17:38:58.714Z,6.60
2019-04-04T17:41:25.553Z,6.50
2019-04-04T17:43:52.837Z,6.30
2019-04-04T17:46:19.580Z,6.20
2019-04-04T17:48:46.490Z,6.10
2019-04-04T17:51:13.447Z,6.00
2019-04-04T17:53:40.874Z,6.00
2019-04-04T17:56:07.534Z,5.90
2019-04-04T17:58:34.543Z,5.80
2019-04-04T18:01:01.321Z,5.70
2019-04-04T18:03:28.268Z,5.60
2019-04-04T18:05:55.108Z,5.50
2019-04-04T18:08:23.484Z,5.40
2019-04-04T18:10:50.651Z,5.40
2019-04-04T18:13:18.517Z,5.10
2019-04-04T18:15:45.657Z,5.10
2019-04-04T18:18:13.727Z,5.00
2019-04-04T18:20:41.489Z,4.80
2019-04-04T18:23:08.642Z,4.80
2019-04-04T18:25:35.896Z,4.70
2019-04-04T18:28:02.690Z,4.60
2019-04-04T18:30:29.579Z,4.50
2019-04-04T18:32:57.243Z,4.30
2019-04-04T18:35:24.405Z,4.30
2019-04-04T18:37:51.028Z,4.20
2019-04-04T18:40:18.266Z,4.20
2019-04-04T18:42:53.023Z,3.90
2019-04-04T18:45:14.631Z,3.90
2019-04-04T18:47:41.578Z,3.90
2019-04-04T18:50:08.731Z,3.80
2019-04-04T18:52:35.877Z,3.80
2019-04-04T18:55:03.730Z,3.70
2019-04-04T18:57:30.586Z,3.60
2019-04-04T18:59:57.324Z,3.60
2019-04-04T19:02:24.271Z,3.60
2019-04-04T19:04:51.112Z,3.60
2019-04-04T19:07:18.985Z,3.60
2019-04-04T19:09:46.027Z,3.50
2019-04-04T19:12:12.975Z,3.40
2019-04-04T19:14:40.535Z,3.20
2019-04-04T19:17:08.299Z,3.20
2019-04-04T19:19:35.141Z,3.10
2019-04-04T19:22:01.984Z,3.10
2019-04-04T19:24:28.827Z,3.00
2019-04-04T19:26:56.386Z,2.90
2019-04-04T19:29:23.328Z,2.90
2019-04-04T19:31:50.493Z,2.80
2019-04-04T19:34:18.043Z,2.70
2019-04-04T19:36:44.991Z,2.70
2019-04-04T19:39:11.953Z,2.60
2019-04-04T19:41:39.522Z,2.50
2019-04-04T19:44:07.768Z,2.50
2019-04-04T19:46:37.324Z,2.50
2019-04-04T19:49:01.454Z,2.50
2019-04-04T19:51:28.303Z,2.50
2019-04-04T19:53:55.140Z,2.50
2019-04-04T19:56:21.983Z,2.40
2019-04-04T19:58:48.986Z,2.40
2019-04-04T20:01:17.000Z,2.30
2019-04-04T20:03:45.469Z,2.30
2019-04-04T20:06:13.146Z,2.20
2019-04-04T20:08:40.909Z,2.20
2019-04-04T20:11:07.755Z,2.10
2019-04-04T20:13:35.520Z,2.00
2019-04-04T20:16:02.359Z,2.00
2019-04-04T20:18:29.208Z,2.00
2019-04-04T20:20:56.046Z,2.10
2019-04-04T20:23:22.782Z,2.00
2019-04-04T20:25:49.937Z,2.10
2019-04-04T20:28:16.778Z,2.20
2019-04-04T20:30:43.728Z,2.10
2019-04-04T20:33:11.489Z,2.30
2019-04-04T20:35:38.200Z,2.30
2019-04-04T20:38:05.230Z,2.30
2019-04-04T20:40:32.222Z,2.40
2019-04-04T20:42:59.063Z,2.50
2019-04-04T20:45:26.011Z,2.40
2019-04-04T20:47:52.860Z,2.40
2019-04-04T20:50:19.797Z,2.40
2019-04-04T20:52:47.050Z,2.40
2019-04-04T20:55:13.771Z,2.50
2019-04-04T20:57:40.837Z,2.30
2019-04-04T21:00:08.951Z,2.20
2019-04-04T21:02:36.982Z,2.20
2019-04-04T21:05:06.897Z,2.10
2019-04-04T21:07:34.558Z,2.10
2019-04-04T21:10:01.399Z,2.20
2019-04-04T21:12:28.141Z,2.20
2019-04-04T21:14:54.984Z,2.20
2019-04-04T21:17:21.734Z,2.20
2019-04-04T21:19:49.081Z,2.20
2019-04-04T21:22:26.937Z,2.20
2019-04-04T21:24:43.379Z,2.20
2019-04-04T21:27:10.531Z,2.20
2019-04-04T21:29:37.376Z,2.10
2019-04-04T21:32:04.932Z,2.10
2019-04-04T21:34:31.774Z,2.00
2019-04-04T21:36:58.616Z,2.00
2019-04-04T21:39:25.768Z,2.00
2019-04-04T21:41:52.509Z,1.90
2019-04-04T21:44:19.252Z,1.90
2019-04-04T21:46:45.991Z,1.90
2019-04-04T21:49:12.858Z,2.00
2019-04-04T21:51:39.986Z,2.00
2019-04-04T21:54:06.727Z,2.00
2019-04-04T21:56:33.566Z,2.10
2019-04-04T21:59:00.411Z,2.20
2019-04-04T22:01:27.254Z,2.20
2019-04-04T22:03:54.609Z,2.20
2019-04-04T22:06:21.755Z,2.20
2019-04-04T22:08:48.496Z,2.10
2019-04-04T22:11:16.263Z,2.20
2019-04-04T22:13:43.208Z,2.20
2019-04-04T22:16:10.153Z,2.20
2019-04-04T22:18:37.304Z,2.20
2019-04-04T22:21:04.968Z,2.20
2019-04-04T22:23:31.704Z,2.20
2019-04-04T22:25:58.462Z,2.20
2019-04-04T22:28:25.287Z,2.30
2019-04-04T22:30:52.131Z,2.30
2019-04-04T22:33:19.386Z,2.40
2019-04-04T22:35:46.228Z,2.50
2019-04-04T22:38:13.175Z,2.50
2019-04-04T22:40:40.015Z,2.50
2019-04-04T22:43:06.961Z,2.50
2019-04-04T22:45:34.009Z,2.60
2019-04-04T22:48:00.749Z,2.60
2019-04-04T22:50:27.489Z,2.60
2019-04-04T22:52:54.338Z,2.70
2019-04-04T22:55:21.280Z,2.70
2019-04-04T22:57:48.740Z,2.60
2019-04-04T23:00:15.793Z,2.70
2019-04-04T23:02:42.864Z,2.70
2019-04-04T23:05:10.100Z,2.70
2019-04-04T23:07:37.643Z,2.60
2019-04-04T23:10:05.353Z,2.60
2019-04-04T23:12:34.711Z,2.50
2019-04-04T23:15:02.166Z,2.50
2019-04-04T23:17:29.313Z,2.50
2019-04-04T23:19:56.415Z,2.50
2019-04-04T23:22:23.824Z,2.50
2019-04-04T23:24:52.198Z,2.60
2019-04-04T23:27:20.068Z,2.60
2019-04-04T23:29:47.421Z,2.60
2019-04-04T23:32:14.266Z,2.50
2019-04-04T23:34:41.024Z,2.60
2019-04-04T23:37:07.850Z,2.60
2019-04-04T23:39:34.794Z,2.50
2019-04-04T23:42:01.634Z,2.40
2019-04-04T23:44:28.978Z,2.40
2019-04-04T23:46:55.729Z,2.50
2019-04-04T23:49:22.573Z,2.50
2019-04-04T23:51:49.312Z,2.50
2019-04-04T23:54:16.257Z,2.50
2019-04-04T23:56:43.206Z,2.40
2019-04-04T23:59:10.250Z,2.40
